KBVY/BVY METAR and TAF weather

Enter ICAO airport designator
Station Type Date Time Source
KBVY METAR 2019/06/20 06:53 UTC NOAA

KBVY 200653Z AUTO 12003KT 10SM OVC009 17/16 A2976 RMK AO2 SLP071 T01720156


Station Type Date Time Source
KBVY Decoded METAR 2019/06/20 06:53 UTC NOAA

BEVERLY MUNICIPAL AIRPORT, MA, United States (KBVY) 42-35N 070-55W 28M
Jun 20, 2019 - 02:53 AM EDT / 2019.06.20 0653 UTC
Wind: from the ESE (120 degrees) at 3 MPH (3 KT):0
Visibility: 10 mile(s):0
Sky conditions: overcast
Temperature: 63.0 F (17.2 C)
Dew Point: 60.1 F (15.6 C)
Relative Humidity: 90%
Pressure (altimeter): 29.76 in. Hg (1007 hPa)
ob: KBVY 200653Z AUTO 12003KT 10SM OVC009 17/16 A2976 RMK AO2 SLP071 T01720156
cycle: 7

Station Type Date Time Source
KBVY TAF UTC NOAA

Error!

Example: see airport list